Time;durP1;ratioP1;P1;durP2;ratioP2;P2;SDS_P1;SDS_P2;PMS_P1;PMS_P2;Temp;Humidity;BMP_temperature;BMP_pressure;BME280_temperature;BME280_humidity;BME280_pressure;Samples;Min_cycle;Max_cycle;Signal;HPM_P1;HPM_P2
2023/10/01 00:04:20;;;;;;;10.23;5.30;;;;;;;20.09;55.86;97619.13;10292955;28;20120;-27
2023/10/01 00:09:20;;;;;;;14.68;6.03;;;;;;;20.08;55.78;97619.16;10289634;28;20034;-26
2023/10/01 00:14:22;;;;;;;9.13;5.03;;;;;;;20.08;55.87;97614.06;10295271;28;20512;-27
2023/10/01 00:19:22;;;;;;;9.65;5.75;;;;;;;20.07;55.80;97625.03;10291686;28;20036;-27
2023/10/01 00:24:23;;;;;;;8.90;5.00;;;;;;;20.07;55.67;97617.41;10292585;28;20424;-26
2023/10/01 00:29:23;;;;;;;9.00;5.53;;;;;;;20.06;55.74;97625.88;10293791;28;20038;-26
2023/10/01 00:34:23;;;;;;;10.67;5.77;;;;;;;20.06;55.69;97629.28;10285944;28;20081;-27
2023/10/01 00:39:24;;;;;;;10.00;5.77;;;;;;;20.00;55.62;97613.13;10286986;28;20450;-27
2023/10/01 00:44:24;;;;;;;9.87;5.70;;;;;;;20.05;55.58;97616.56;10292463;28;20382;-26
2023/10/01 00:49:24;;;;;;;11.80;6.57;;;;;;;20.04;55.42;97604.66;10288974;28;20035;-26
2023/10/01 00:54:25;;;;;;;12.33;6.53;;;;;;;19.94;55.39;97593.56;10285410;28;20038;-27
2023/10/01 00:59:25;;;;;;;9.55;6.10;;;;;;;20.06;55.38;97592.84;10291327;28;20855;-28
2023/10/01 01:04:29;;;;;;;11.43;6.67;;;;;;;20.05;55.49;97603.84;10287072;28;20050;-27
2023/10/01 01:09:30;;;;;;;13.10;6.10;;;;;;;19.93;55.50;97585.94;10300152;28;20345;-27
2023/10/01 01:14:30;;;;;;;9.77;5.60;;;;;;;20.02;55.04;97603.81;10289995;28;20509;-27
2023/10/01 01:19:34;;;;;;;10.60;5.53;;;;;;;19.98;55.40;97591.88;10287332;28;20050;-27
2023/10/01 01:24:34;;;;;;;9.35;5.97;;;;;;;20.00;55.38;97587.69;10287038;28;20045;-26
2023/10/01 01:29:40;;;;;;;12.23;5.70;;;;;;;20.04;55.28;97584.31;10304153;28;20045;-27
2023/10/01 01:34:41;;;;;;;;;;;;;;;20.04;54.99;97599.56;10301821;28;20460;-27
2023/10/01 01:39:49;;;;;;;10.70;5.95;;;;;;;20.03;55.21;97597.88;10282448;28;20017;-26
2023/10/01 01:45:14;;;;;;;12.38;6.80;;;;;;;20.00;55.56;97596.16;10287787;28;20121;-27
2023/10/01 01:50:18;;;;;;;11.02;6.00;;;;;;;19.98;55.12;97589.34;10296180;28;20042;-26
2023/10/01 01:55:26;;;;;;;9.30;5.30;;;;;;;20.03;54.98;97587.72;10270642;28;20574;-26
2023/10/01 02:00:26;;;;;;;10.73;6.43;;;;;;;20.01;55.01;97587.69;10282836;28;20050;-26
2023/10/01 02:05:28;;;;;;;9.07;5.13;;;;;;;20.00;55.11;97585.16;10293721;28;20034;-26
2023/10/01 02:10:31;;;;;;;9.23;5.97;;;;;;;20.01;55.11;97584.31;10284159;28;20389;-26
2023/10/01 02:15:32;;;;;;;11.90;6.75;;;;;;;20.02;55.21;97578.38;10284768;28;20489;-27
2023/10/01 02:20:33;;;;;;;10.10;5.65;;;;;;;20.00;54.93;97572.44;10286407;28;20043;-27
2023/10/01 02:25:45;;;;;;;13.63;6.85;;;;;;;19.90;54.85;97550.31;10283374;28;20066;-27
2023/10/01 02:30:46;;;;;;;12.52;7.07;;;;;;;20.01;54.61;97561.44;10286382;28;20134;-26
2023/10/01 02:35:55;;;;;;;10.90;6.20;;;;;;;20.00;54.87;97552.94;10285555;28;20045;-26
2023/10/01 02:40:58;;;;;;;10.88;6.30;;;;;;;19.99;54.63;97550.38;10291049;28;20057;-26
2023/10/01 02:46:11;;;;;;;11.32;6.00;;;;;;;20.01;54.83;97543.63;10291636;28;20031;-26
2023/10/01 02:51:15;;;;;;;12.13;6.38;;;;;;;20.02;54.32;97555.50;10282762;28;20039;-27
2023/10/01 02:56:16;;;;;;;11.45;6.20;;;;;;;20.08;54.83;97555.59;10288419;28;20129;-27
2023/10/01 03:01:20;;;;;;;10.18;6.18;;;;;;;20.13;54.28;97552.25;10292437;28;20051;-27
2023/10/01 03:06:21;;;;;;;12.38;6.78;;;;;;;20.04;54.43;97554.72;10289150;28;20038;-26
2023/10/01 03:11:22;;;;;;;11.23;6.67;;;;;;;20.01;54.54;97543.63;10289449;28;20375;-26
2023/10/01 03:16:42;;;;;;;9.50;5.68;;;;;;;20.06;54.79;97545.41;10291901;28;20125;-27
2023/10/01 03:32:40;;;;;;;11.15;6.03;;;;;;;20.10;54.30;97542.03;10279910;28;20046;-26
2023/10/01 03:37:43;;;;;;;12.00;6.80;;;;;;;20.13;54.35;97543.75;10292259;28;20035;-26
2023/10/01 03:42:50;;;;;;;9.90;5.75;;;;;;;20.00;54.69;97542.78;10290562;28;20541;-25
2023/10/01 03:47:57;;;;;;;11.85;6.82;;;;;;;20.01;54.40;97543.63;10295218;28;20575;-27
2023/10/01 03:52:59;;;;;;;11.95;6.80;;;;;;;20.04;54.50;97551.28;10294007;28;20046;-26
2023/10/01 04:03:06;;;;;;;11.23;6.35;;;;;;;20.06;54.39;97552.16;10288989;28;20066;-27
2023/10/01 04:08:08;;;;;;;12.52;7.18;;;;;;;20.00;54.57;97547.03;10296243;28;20061;-27
2023/10/01 04:13:27;;;;;;;8.88;5.60;;;;;;;20.04;54.55;97548.72;10289523;28;20085;-26
2023/10/01 04:18:28;;;;;;;10.77;5.85;;;;;;;20.13;54.16;97553.91;10289130;28;20039;-27
2023/10/01 04:23:48;;;;;;;10.02;5.97;;;;;;;20.07;54.22;97551.31;10294490;28;20039;-26
2023/10/01 04:28:54;;;;;;;12.20;6.45;;;;;;;20.02;54.34;97542.78;10295444;28;20035;-27
2023/10/01 04:33:55;;;;;;;10.65;5.68;;;;;;;20.09;54.32;97542.88;10296589;28;20092;-26
2023/10/01 04:39:00;;;;;;;10.73;6.38;;;;;;;20.15;54.11;97548.00;10285907;28;20382;-26
2023/10/01 04:44:06;;;;;;;9.38;5.72;;;;;;;20.08;54.19;97550.50;10294573;28;20516;-27
2023/10/01 04:54:44;;;;;;;11.60;6.17;;;;;;;20.08;53.99;97555.59;10322869;28;20420;-26
2023/10/01 04:59:56;;;;;;;9.63;6.10;;;;;;;20.13;53.97;97564.09;10298720;28;20039;-27
2023/10/01 05:05:09;;;;;;;10.52;6.20;;;;;;;20.02;54.40;97558.03;10286151;28;20409;-26
2023/10/01 05:10:09;;;;;;;10.93;6.53;;;;;;;20.00;54.41;97562.28;10282342;28;20041;-27
2023/10/01 05:15:17;;;;;;;11.65;6.03;;;;;;;20.02;54.28;97566.50;10291468;28;20027;-27
2023/10/01 05:20:19;;;;;;;11.88;6.57;;;;;;;20.06;53.81;97562.34;10291147;28;20042;-26
2023/10/01 05:25:21;;;;;;;11.45;6.45;;;;;;;20.09;54.08;97559.84;10300225;28;20038;-27
2023/10/01 05:30:42;;;;;;;10.65;6.15;;;;;;;20.03;54.20;97536.88;10282435;28;20061;-27
2023/10/01 05:35:47;;;;;;;10.63;6.05;;;;;;;20.04;53.93;97553.81;10284056;28;20026;-26
2023/10/01 05:40:52;;;;;;;11.23;5.93;;;;;;;20.09;53.75;97562.38;10286383;28;20035;-27
2023/10/01 05:45:54;;;;;;;11.98;6.15;;;;;;;20.09;53.86;97567.47;10290525;28;20034;-26
2023/10/01 05:50:57;;;;;;;13.50;5.90;;;;;;;20.17;53.68;97573.44;10285276;28;20027;-25
2023/10/01 05:56:05;;;;;;;9.68;5.43;;;;;;;20.22;53.88;97566.69;10282206;28;20031;-27
2023/10/01 06:01:06;;;;;;;9.38;5.82;;;;;;;20.24;53.51;97567.53;10279135;28;20035;-27
2023/10/01 06:06:25;;;;;;;14.57;7.00;;;;;;;20.15;54.94;97567.47;10286422;28;20035;-27
2023/10/01 06:11:39;;;;;;;14.20;6.22;;;;;;;20.21;54.98;97580.25;10294910;28;20027;-27
2023/10/01 06:16:39;;;;;;;17.80;7.35;;;;;;;20.20;55.92;97578.53;10293285;28;20035;-26
2023/10/01 06:21:41;;;;;;;16.27;6.00;;;;;;;20.20;56.17;97576.00;10291560;28;20046;-27
2023/10/01 06:26:45;;;;;;;19.85;6.05;;;;;;;20.33;55.17;97567.63;10289621;28;20034;-26
2023/10/01 06:31:52;;;;;;;18.27;6.72;;;;;;;20.27;54.54;97568.41;10294264;28;20037;-25
2023/10/01 06:36:58;;;;;;;18.33;6.40;;;;;;;20.30;55.29;97565.03;10292067;28;20026;-27
2023/10/01 06:47:22;;;;;;;14.30;7.60;;;;;;;20.23;55.35;97564.16;10286531;28;20486;-27
2023/10/01 06:52:27;;;;;;;13.63;7.40;;;;;;;20.16;55.46;97566.63;10289020;28;20039;-26
2023/10/01 06:57:31;;;;;;;17.20;7.97;;;;;;;20.18;55.22;97567.53;10310744;28;20448;-27
2023/10/01 07:02:32;;;;;;;13.27;7.00;;;;;;;20.15;55.36;97558.19;10293187;28;20050;-26
2023/10/01 07:07:35;;;;;;;12.75;7.38;;;;;;;20.19;55.60;97559.03;10290490;28;20110;-27
2023/10/01 07:12:37;;;;;;;17.70;7.32;;;;;;;20.25;55.47;97562.47;10300464;28;20119;-26
2023/10/01 07:17:38;;;;;;;14.57;7.28;;;;;;;20.28;55.79;97556.56;10290423;28;20038;-27
2023/10/01 07:22:38;;;;;;;14.47;6.60;;;;;;;20.26;55.37;97566.72;10283840;28;20042;-27
2023/10/01 07:27:42;;;;;;;16.57;6.97;;;;;;;20.29;55.51;97555.72;10287145;28;20039;-27
2023/10/01 07:32:42;;;;;;;16.10;7.35;;;;;;;20.34;55.69;97569.31;10289528;28;20413;-27
2023/10/01 07:37:43;;;;;;;20.33;6.93;;;;;;;20.33;55.54;97575.25;10286018;28;20047;-26
2023/10/01 07:42:54;;;;;;;21.48;8.38;;;;;;;20.32;55.50;97565.91;10290352;28;20117;-26
2023/10/01 07:47:55;;;;;;;17.85;7.20;;;;;;;20.24;55.43;97572.63;10287497;28;20117;-26
2023/10/01 07:53:04;;;;;;;19.17;8.27;;;;;;;20.29;55.52;97578.59;10285589;28;20692;-25
2023/10/01 07:58:22;;;;;;;18.20;8.00;;;;;;;20.18;55.98;97577.69;10282635;28;20636;-26
2023/10/01 08:08:47;;;;;;;15.93;7.30;;;;;;;20.18;56.02;97583.59;10285817;28;20038;-27
2023/10/01 08:13:47;;;;;;;14.95;6.75;;;;;;;20.26;55.49;97594.69;10291598;28;20403;-27
2023/10/01 08:18:48;;;;;;;16.95;6.78;;;;;;;20.28;55.70;97594.72;10291198;28;20053;-27
2023/10/01 08:23:48;;;;;;;16.50;6.72;;;;;;;20.25;55.77;97585.34;10291135;28;20039;-27
2023/10/01 08:28:58;;;;;;;11.82;5.70;;;;;;;20.31;55.70;97592.19;10288362;28;20512;-26
2023/10/01 08:34:22;;;;;;;15.18;6.22;;;;;;;20.29;55.62;97589.63;10284759;28;20152;-27
2023/10/01 08:39:33;;;;;;;10.95;5.88;;;;;;;20.29;55.38;97583.69;10280359;28;20035;-26
2023/10/01 08:44:46;;;;;;;11.27;6.28;;;;;;;20.32;55.81;97593.88;10287543;28;20117;-26
2023/10/01 08:49:51;;;;;;;12.50;6.15;;;;;;;20.33;55.66;97600.69;10281234;28;20493;-28
2023/10/01 08:54:56;;;;;;;10.85;5.25;;;;;;;20.33;55.65;97603.22;10281863;28;20053;-27
2023/10/01 08:59:59;;;;;;;11.73;5.93;;;;;;;20.31;55.63;97605.75;10289174;28;20125;-26
2023/10/01 09:05:07;;;;;;;11.68;6.35;;;;;;;20.32;55.56;97599.81;10288779;28;20034;-26
2023/10/01 09:10:17;;;;;;;10.95;6.03;;;;;;;20.34;55.60;97599.84;10286944;28;20500;-27
2023/10/01 09:15:38;;;;;;;11.63;5.90;;;;;;;20.33;55.81;97598.97;10293182;28;20401;-27
2023/10/01 09:20:39;;;;;;;11.98;5.20;;;;;;;20.33;55.71;97596.44;10290299;28;20042;-26
2023/10/01 09:25:41;;;;;;;9.23;5.82;;;;;;;20.33;55.67;97604.06;10284141;28;20092;-27
2023/10/01 09:36:37;;;;;;;10.70;5.47;;;;;;;20.34;55.72;97597.31;10284755;28;20023;-27
2023/10/01 09:41:40;;;;;;;9.35;5.25;;;;;;;20.33;55.90;97593.06;10280231;28;20038;-27
2023/10/01 09:46:42;;;;;;;9.23;4.65;;;;;;;20.34;55.67;97595.59;10296425;28;20038;-26
2023/10/01 09:51:46;;;;;;;9.95;5.57;;;;;;;20.33;55.84;97593.06;10291431;28;20037;-27
2023/10/01 09:56:46;;;;;;;9.45;5.22;;;;;;;20.34;55.71;97594.75;10289835;28;20038;-27
2023/10/01 10:01:47;;;;;;;7.00;4.68;;;;;;;20.33;55.80;97588.81;10293672;28;20414;-26
2023/10/01 10:06:59;;;;;;;8.73;5.00;;;;;;;20.32;55.79;97581.16;10292447;28;20050;-26
2023/10/01 10:12:07;;;;;;;8.52;4.43;;;;;;;20.32;55.94;97568.44;10291518;28;20031;-27
2023/10/01 10:17:18;;;;;;;9.60;5.18;;;;;;;20.32;55.96;97560.81;10291283;28;20042;-26
2023/10/01 10:22:19;;;;;;;10.82;5.88;;;;;;;20.33;55.89;97558.28;10290439;28;20134;-25
2023/10/01 10:27:19;;;;;;;7.18;4.43;;;;;;;20.26;55.87;97541.28;10292390;28;20464;-27
2023/10/01 10:32:24;;;;;;;9.30;4.72;;;;;;;20.35;55.84;97545.59;10290313;28;20041;-28
2023/10/01 10:37:36;;;;;;;8.52;5.20;;;;;;;20.40;55.81;97548.13;10288631;28;20416;-26
2023/10/01 10:42:37;;;;;;;6.90;4.95;;;;;;;20.42;55.59;97532.91;10293774;28;20042;-26
2023/10/01 10:48:03;;;;;;;8.07;4.43;;;;;;;20.45;55.69;97541.41;10287941;28;20039;-28
2023/10/01 10:53:14;;;;;;;7.47;4.60;;;;;;;20.44;55.91;97537.16;10285802;28;20417;-27
2023/10/01 10:58:15;;;;;;;8.02;4.90;;;;;;;20.45;55.83;97538.84;10289166;28;20485;-26
2023/10/01 11:03:16;;;;;;;9.67;5.63;;;;;;;20.46;56.05;97529.53;10291247;28;20031;-27
2023/10/01 11:08:26;;;;;;;9.32;5.60;;;;;;;20.47;56.12;97527.00;10290112;28;20360;-27
2023/10/01 11:13:42;;;;;;;9.20;5.25;;;;;;;20.46;56.11;97520.19;10291222;28;20513;-26
2023/10/01 11:18:47;;;;;;;8.07;4.93;;;;;;;20.49;56.24;97519.38;10291128;28;20038;-27
2023/10/01 11:23:53;;;;;;;7.60;4.47;;;;;;;20.48;56.24;97507.50;10283876;28;20093;-26
2023/10/01 11:28:57;;;;;;;7.70;4.55;;;;;;;20.47;56.37;97516.81;10291269;28;20030;-26
2023/10/01 11:33:58;;;;;;;7.38;4.60;;;;;;;20.46;56.11;97499.84;10288667;28;20089;-27
2023/10/01 11:39:03;;;;;;;8.45;4.80;;;;;;;20.46;56.24;97494.75;10282043;28;20034;-27
2023/10/01 11:44:05;;;;;;;7.47;4.40;;;;;;;20.47;56.16;97488.81;10291363;28;20035;-27
2023/10/01 11:49:06;;;;;;;7.63;4.72;;;;;;;20.47;56.23;97493.09;10281284;28;20039;-27
2023/10/01 11:54:09;;;;;;;7.55;4.47;;;;;;;20.47;56.36;97485.44;10283735;28;20465;-26
2023/10/01 11:59:17;;;;;;;8.20;4.68;;;;;;;20.47;56.39;97483.75;10289417;28;20049;-25
2023/10/01 12:09:52;;;;;;;8.68;4.43;;;;;;;20.48;56.51;97469.34;10288771;28;20047;-25
2023/10/01 12:14:56;;;;;;;8.02;4.80;;;;;;;20.47;56.38;97463.38;10291945;28;20109;-27
2023/10/01 12:20:01;;;;;;;6.55;4.20;;;;;;;20.48;56.43;97459.16;10282697;28;20039;-27
2023/10/01 12:25:02;;;;;;;7.57;4.22;;;;;;;20.47;56.14;97455.75;10281273;28;20103;-27
2023/10/01 12:30:57;;;;;;;5.80;3.88;;;;;;;20.46;56.31;97454.06;10287039;28;20045;-27
2023/10/01 12:35:32;;;;;;;6.00;4.10;;;;;;;20.47;56.42;97448.13;10290596;28;20502;-26
2023/10/01 12:40:34;;;;;;;8.07;4.70;;;;;;;20.45;56.46;97439.66;10279934;28;20097;-26
2023/10/01 12:45:35;;;;;;;8.15;4.68;;;;;;;20.46;56.14;97431.16;10287624;28;20092;-26
2023/10/01 12:50:36;;;;;;;7.40;4.50;;;;;;;20.46;56.49;97438.81;10287317;28;20096;-27
2023/10/01 12:55:39;;;;;;;7.75;4.45;;;;;;;20.47;56.59;97425.22;10283096;28;20042;-26
2023/10/01 13:00:45;;;;;;;7.35;4.32;;;;;;;20.47;56.36;97430.31;10287180;28;20053;-26
2023/10/01 13:05:48;;;;;;;6.22;3.90;;;;;;;20.46;56.40;97425.25;10286729;28;20062;-26
2023/10/01 13:10:50;;;;;;;7.57;4.20;;;;;;;20.44;56.33;97419.28;10284431;28;20039;-26
2023/10/01 13:15:54;;;;;;;6.68;4.40;;;;;;;20.45;56.54;97419.28;10287541;28;20054;-26
2023/10/01 13:21:06;;;;;;;5.90;3.70;;;;;;;20.46;56.55;97428.63;10284441;28;20035;-27
2023/10/01 13:31:40;;;;;;;6.22;4.07;;;;;;;20.46;56.28;97427.78;10282276;28;20047;-26
2023/10/01 14:08:44;;;;;;;5.90;3.75;;;;;;;20.45;56.15;97415.91;10284008;28;20122;-26
2023/10/01 14:13:44;;;;;;;5.78;3.45;;;;;;;20.45;56.47;97404.03;10285464;28;20497;-27
2023/10/01 14:24:23;;;;;;;5.72;3.70;;;;;;;20.46;56.27;97397.28;10269358;28;20322;-26
2023/10/01 14:29:23;;;;;;;5.53;3.72;;;;;;;20.45;56.48;97388.78;10287479;28;20053;-27
2023/10/01 14:34:24;;;;;;;4.93;3.42;;;;;;;20.44;56.53;97384.53;10288969;28;20053;-27
2023/10/01 14:39:30;;;;;;;6.20;3.77;;;;;;;20.45;56.60;97386.22;10281091;28;20089;-27
2023/10/01 14:44:30;;;;;;;11.20;4.63;;;;;;;20.41;57.41;97378.59;10291932;28;20038;-26
2023/10/01 14:49:30;;;;;;;6.10;3.83;;;;;;;20.44;56.62;97371.81;10290458;28;20034;-27
2023/10/01 14:54:36;;;;;;;6.43;3.30;;;;;;;20.44;56.60;97366.72;10293739;28;20421;-27
2023/10/01 14:59:36;;;;;;;6.50;3.87;;;;;;;20.46;56.60;97367.56;10295689;28;20042;-26
2023/10/01 15:04:38;;;;;;;6.47;3.23;;;;;;;20.47;56.67;97364.19;10290178;28;20041;-27
2023/10/01 15:09:38;;;;;;;7.07;3.25;;;;;;;20.47;56.34;97364.19;10287384;28;20037;-27
2023/10/01 15:14:39;;;;;;;10.18;3.70;;;;;;;20.49;57.58;97365.06;10290442;28;20046;-26
2023/10/01 15:19:46;;;;;;;6.07;4.00;;;;;;;20.50;57.39;97373.53;10292716;28;20038;-26
2023/10/01 15:24:48;;;;;;;9.02;4.72;;;;;;;20.46;56.88;97362.50;10305536;23;20588;-27
2023/10/01 15:29:52;;;;;;;9.75;4.10;;;;;;;20.48;56.50;97355.69;10283273;28;20027;-26
2023/10/01 15:34:56;;;;;;;11.07;3.60;;;;;;;20.45;56.55;97354.88;10307786;28;20153;-27
2023/10/01 15:40:00;;;;;;;7.82;3.58;;;;;;;20.47;56.73;97353.19;10321057;28;20084;-30
2023/10/01 15:45:15;;;;;;;7.10;2.95;;;;;;;20.47;56.79;97356.56;10317293;28;20030;-28
2023/10/01 15:50:18;;;;;;;8.80;4.13;;;;;;;20.46;56.83;97354.84;10322418;28;20105;-28
2023/10/01 15:55:31;;;;;;;8.57;3.80;;;;;;;20.43;56.77;97357.41;10333057;28;20042;-26
2023/10/01 16:00:34;;;;;;;6.13;3.65;;;;;;;20.47;57.02;97358.25;10327076;28;20034;-27
2023/10/01 16:05:40;;;;;;;8.05;3.90;;;;;;;20.45;56.70;97363.34;10332803;28;20064;-24
2023/10/01 16:10:43;;;;;;;7.53;4.15;;;;;;;20.45;56.90;97360.78;10329684;28;20413;-26
2023/10/01 16:15:49;;;;;;;6.25;3.78;;;;;;;20.45;56.75;97354.88;10330910;28;20131;-22
2023/10/01 16:20:50;;;;;;;8.23;4.47;;;;;;;20.45;56.45;97348.06;10333329;28;20033;-24
2023/10/01 16:25:50;;;;;;;8.23;5.32;;;;;;;20.44;56.40;97354.00;10330023;28;20041;-25
2023/10/01 16:31:04;;;;;;;5.33;2.93;;;;;;;20.44;56.59;97354.00;10330128;28;20041;-24
2023/10/01 16:36:04;;;;;;;6.13;3.78;;;;;;;20.42;56.51;97360.81;10332726;28;20138;-26
2023/10/01 16:41:15;;;;;;;5.80;3.58;;;;;;;20.45;56.75;97365.06;10330207;28;20113;-23
2023/10/01 16:46:19;;;;;;;9.70;3.58;;;;;;;20.45;56.75;97359.97;10325755;28;20109;-25
2023/10/01 16:51:23;;;;;;;8.65;3.63;;;;;;;20.46;56.61;97365.03;10319283;28;20038;-24
2023/10/01 16:56:25;;;;;;;7.75;4.82;;;;;;;20.49;58.23;97369.28;10323613;28;20043;-24
2023/10/01 17:01:27;;;;;;;6.78;4.13;;;;;;;20.47;56.50;97369.28;10314695;28;20639;-24
2023/10/01 17:06:29;;;;;;;5.82;3.78;;;;;;;20.47;56.59;97370.97;10316918;28;20045;-24
2023/10/01 17:11:30;;;;;;;5.25;3.63;;;;;;;20.45;56.67;97376.06;10324019;28;20043;-24
2023/10/01 17:16:33;;;;;;;15.63;4.60;;;;;;;20.44;58.07;97379.44;10323837;28;20046;-24
2023/10/01 17:21:43;;;;;;;18.25;6.93;;;;;;;20.50;59.39;97384.56;10316415;28;20100;-24
2023/10/01 17:26:49;;;;;;;10.23;4.60;;;;;;;20.45;57.51;97393.88;10320278;28;20113;-24
2023/10/01 17:31:54;;;;;;;10.80;5.35;;;;;;;20.47;58.23;97392.16;10320743;28;20421;-24
2023/10/01 17:37:00;;;;;;;9.68;4.07;;;;;;;20.48;57.55;97400.66;10324924;28;20038;-24
2023/10/01 17:42:01;;;;;;;;;;;;;;;20.48;57.78;97401.50;10325533;28;20117;-25
2023/10/01 17:47:07;;;;;;;8.55;4.68;;;;;;;20.46;58.08;97403.19;10324211;28;19972;-23
2023/10/01 17:57:46;;;;;;;7.87;4.20;;;;;;;20.44;57.27;97402.34;10299682;28;20074;-24
2023/10/01 18:02:46;;;;;;;9.10;3.75;;;;;;;20.45;57.33;97414.22;10323071;28;20380;-23
2023/10/01 18:07:52;;;;;;;7.47;4.20;;;;;;;20.43;57.05;97408.28;10331702;28;20038;-26
2023/10/01 18:12:52;;;;;;;4.80;3.20;;;;;;;20.44;56.91;97404.88;10326998;28;20029;-26
2023/10/01 18:17:55;;;;;;;9.17;4.27;;;;;;;20.47;56.80;97417.59;10328450;28;20034;-26
2023/10/01 18:22:57;;;;;;;9.55;3.65;;;;;;;20.48;56.95;97416.75;10328017;28;20311;-26
2023/10/01 18:27:58;;;;;;;6.60;3.72;;;;;;;20.47;56.92;97415.06;10329786;28;20528;-26
2023/10/01 18:32:58;;;;;;;5.33;3.20;;;;;;;20.47;56.99;97420.16;10327135;28;20026;-26
2023/10/01 18:38:11;;;;;;;6.07;4.27;;;;;;;20.47;56.84;97420.16;10322524;28;20042;-26
2023/10/01 18:43:11;;;;;;;6.78;3.58;;;;;;;20.47;56.96;97421.84;10328040;28;20035;-26
2023/10/01 18:48:12;;;;;;;7.32;3.95;;;;;;;20.46;56.84;97425.25;10324250;28;20035;-27
2023/10/01 18:53:13;;;;;;;7.00;3.83;;;;;;;20.45;56.85;97437.09;10326931;28;20034;-26
2023/10/01 18:58:17;;;;;;;4.83;3.00;;;;;;;20.45;56.74;97428.63;10324601;28;20030;-26
2023/10/01 19:03:18;;;;;;;4.28;3.00;;;;;;;20.45;56.69;97437.09;10323211;28;20113;-25
2023/10/01 19:08:18;;;;;;;7.20;3.88;;;;;;;20.43;56.54;97438.81;10326685;28;20259;-24
2023/10/01 19:13:18;;;;;;;5.60;3.07;;;;;;;20.43;56.61;97427.75;10327963;28;20038;-24
2023/10/01 19:18:19;;;;;;;4.93;3.00;;;;;;;20.42;56.49;97436.25;10326541;28;20045;-25
2023/10/01 19:23:30;;;;;;;5.97;3.07;;;;;;;20.42;56.54;97439.66;10322193;28;20819;-24
2023/10/01 19:28:31;;;;;;;5.13;2.80;;;;;;;20.42;56.55;97437.09;10326938;28;20286;-25
2023/10/01 19:33:34;;;;;;;6.25;3.10;;;;;;;20.41;56.48;97439.63;10319530;28;20039;-26
2023/10/01 19:38:36;;;;;;;5.10;3.40;;;;;;;20.42;56.63;97442.19;10326038;28;20038;-24
2023/10/01 19:43:37;;;;;;;4.78;2.67;;;;;;;20.40;56.58;97441.31;10326172;28;20073;-24
2023/10/01 19:48:38;;;;;;;4.28;2.42;;;;;;;20.42;56.53;97435.41;10325408;28;20045;-24
2023/10/01 19:53:38;;;;;;;5.30;3.00;;;;;;;20.39;56.63;97442.16;10324811;28;20045;-25
2023/10/01 19:58:47;;;;;;;4.20;2.80;;;;;;;20.40;56.45;97438.78;10329134;28;20050;-24
2023/10/01 20:03:51;;;;;;;5.20;2.90;;;;;;;20.40;56.47;97431.13;10324969;28;20108;-24
2023/10/01 20:08:57;;;;;;;4.15;2.70;;;;;;;20.38;56.53;97428.59;10324163;28;20042;-23
2023/10/01 20:13:57;;;;;;;4.72;2.78;;;;;;;20.39;56.57;97441.31;10322692;28;20034;-24
2023/10/01 20:18:59;;;;;;;3.33;2.63;;;;;;;20.40;56.40;97432.84;10318691;28;20061;-24
2023/10/01 20:23:59;;;;;;;4.15;2.60;;;;;;;20.39;56.75;97431.97;10323201;28;20042;-24
2023/10/01 20:29:00;;;;;;;5.57;2.55;;;;;;;20.37;56.47;97426.91;10324225;28;20076;-24
2023/10/01 20:34:00;;;;;;;4.23;2.70;;;;;;;20.39;56.49;97434.53;10320119;28;20038;-25
2023/10/01 20:39:03;;;;;;;3.87;2.53;;;;;;;20.34;56.41;97416.72;10322941;28;20038;-24
2023/10/01 20:44:06;;;;;;;3.05;2.28;;;;;;;20.38;56.59;97419.28;10324116;28;20041;-24
2023/10/01 20:49:07;;;;;;;5.97;3.00;;;;;;;20.38;56.42;97425.19;10317373;28;20056;-24
2023/10/01 20:54:13;;;;;;;3.33;2.33;;;;;;;20.39;56.53;97421.81;10322552;28;20037;-24
2023/10/01 20:59:14;;;;;;;4.40;2.45;;;;;;;20.38;56.46;97415.03;10324016;28;20092;-24
2023/10/01 21:04:24;;;;;;;4.83;2.90;;;;;;;20.38;56.57;97410.78;10322235;28;20437;-24
2023/10/01 21:09:25;;;;;;;3.90;3.05;;;;;;;20.38;56.79;97398.94;10322291;28;20352;-24
2023/10/01 21:14:33;;;;;;;3.85;2.47;;;;;;;20.38;56.55;97403.16;10324333;28;20050;-25
2023/10/01 21:19:42;;;;;;;5.35;3.20;;;;;;;20.40;57.45;97398.06;10318731;28;20038;-24
2023/10/01 21:24:43;;;;;;;4.40;2.92;;;;;;;20.38;56.97;97401.47;10321246;28;20533;-24
2023/10/01 21:29:45;;;;;;;6.35;4.03;;;;;;;20.42;57.15;97406.59;10322372;28;20453;-24
2023/10/01 21:34:48;;;;;;;4.10;2.80;;;;;;;20.42;57.02;97401.50;10323113;28;20515;-24
2023/10/01 21:39:56;;;;;;;5.55;3.47;;;;;;;20.43;57.00;97395.56;10326599;28;20026;-24
2023/10/01 21:45:09;;;;;;;4.07;2.65;;;;;;;20.44;56.78;97398.94;10332170;28;20066;-24
2023/10/01 21:50:14;;;;;;;5.23;3.33;;;;;;;20.43;57.15;97400.66;10317515;28;20023;-24
2023/10/01 21:55:17;;;;;;;4.53;3.00;;;;;;;20.44;56.60;97393.84;10322695;28;20613;-24
2023/10/01 22:05:41;;;;;;;4.93;3.15;;;;;;;20.42;56.63;97389.63;10322550;28;20676;-24
2023/10/01 22:10:41;;;;;;;5.60;3.33;;;;;;;20.39;56.80;97385.38;10324692;28;20035;-26
2023/10/01 22:15:42;;;;;;;4.50;2.60;;;;;;;20.39;56.46;97387.91;10321972;28;20093;-24
2023/10/01 22:20:49;;;;;;;3.75;2.55;;;;;;;20.39;56.48;97391.28;10325836;28;20128;-24
2023/10/01 22:25:50;;;;;;;3.90;2.75;;;;;;;20.39;56.70;97393.84;10324249;28;20046;-24
2023/10/01 22:30:51;;;;;;;2.97;2.15;;;;;;;20.38;56.65;97387.91;10323578;28;20042;-24
2023/10/01 22:35:53;;;;;;;4.50;2.45;;;;;;;20.34;56.57;97376.03;10325453;28;20038;-24
2023/10/01 22:40:55;;;;;;;4.30;2.70;;;;;;;20.38;56.59;97387.91;10323847;28;20038;-24
2023/10/01 22:45:58;;;;;;;3.75;2.42;;;;;;;20.38;56.32;97382.81;10323819;28;20046;-24
2023/10/01 22:51:01;;;;;;;5.38;2.33;;;;;;;20.37;56.29;97373.50;10328092;28;20034;-24
2023/10/01 22:56:04;;;;;;;3.85;2.72;;;;;;;20.37;56.44;97376.91;10330252;28;20034;-23
2023/10/01 23:01:05;;;;;;;3.78;2.63;;;;;;;20.37;56.75;97381.13;10328315;28;20026;-25
2023/10/01 23:06:06;;;;;;;3.50;2.40;;;;;;;20.38;56.65;97387.91;10326637;28;20552;-25
2023/10/01 23:11:07;;;;;;;4.10;2.30;;;;;;;20.38;56.46;97387.91;10331167;28;20420;-24
2023/10/01 23:16:16;;;;;;;4.53;2.83;;;;;;;20.38;56.62;97387.91;10331317;28;20037;-24
2023/10/01 23:21:19;;;;;;;3.47;2.45;;;;;;;20.37;56.79;97387.06;10331423;28;20372;-24
2023/10/01 23:31:25;;;;;;;3.50;2.72;;;;;;;20.37;56.48;97381.13;10331455;28;20108;-24
2023/10/01 23:36:39;;;;;;;4.27;2.80;;;;;;;20.34;56.50;97371.78;10328070;28;20050;-25
2023/10/01 23:41:48;;;;;;;3.95;2.65;;;;;;;20.35;56.79;97381.09;10329325;28;20113;-24
2023/10/01 23:46:59;;;;;;;4.28;2.70;;;;;;;20.36;56.49;97371.78;10330554;28;20053;-26
2023/10/01 23:52:02;;;;;;;3.38;2.42;;;;;;;20.35;56.70;97375.19;10329528;28;20060;-24
2023/10/01 23:57:13;;;;;;;4.78;2.60;;;;;;;20.33;56.50;97361.63;10328298;28;20035;-24
